Time;durP1;ratioP1;P1;durP2;ratioP2;P2;SDS_P1;SDS_P2;PMS_P1;PMS_P2;Temp;Humidity;BMP_temperature;BMP_pressure;BME280_temperature;BME280_humidity;BME280_pressure;Samples;Min_cycle;Max_cycle;Signal;HPM_P1;HPM_P2
2022/08/07 00:01:20;;;;;;;0.60;0.60;;;17.10;65.40;;;17.34;51.46;95676.75;5026915;28;20772;-78
2022/08/07 00:04:07;;;;;;;0.47;0.47;;;17.10;65.80;;;17.26;51.54;95675.19;5024066;28;20196;-78
2022/08/07 00:06:38;;;;;;;0.50;0.50;;;17.00;65.30;;;17.24;51.81;95673.78;5043925;28;20227;-78
2022/08/07 00:09:19;;;;;;;0.60;0.60;;;17.00;65.50;;;17.15;51.75;95662.63;5031830;28;20604;-78
2022/08/07 00:11:50;;;;;;;0.55;0.55;;;16.90;65.50;;;17.16;52.12;95674.03;5061605;28;20666;-78
2022/08/07 00:14:29;;;;;;;0.60;0.60;;;16.90;66.70;;;17.10;51.62;95679.16;5059297;28;20250;-78
2022/08/07 00:17:01;;;;;;;0.50;0.50;;;16.90;65.80;;;17.07;51.95;95668.97;5029389;28;20251;-78
2022/08/07 00:19:30;;;;;;;0.50;0.50;;;16.80;66.20;;;17.02;52.27;95668.00;5028660;28;20203;-78
2022/08/07 00:22:19;;;;;;;0.60;0.60;;;16.80;65.90;;;16.98;51.85;95672.94;5029759;28;20247;-78
2022/08/07 00:25:08;;;;;;;0.60;0.60;;;16.70;65.90;;;16.92;52.51;95671.13;5047393;28;20727;-78
2022/08/07 00:27:43;;;;;;;0.50;0.50;;;16.70;66.50;;;16.90;52.15;95668.63;5015724;28;20298;-78
2022/08/07 00:30:23;;;;;;;0.50;0.50;;;16.60;66.00;;;16.87;52.28;95666.44;5048704;28;20646;-78
2022/08/07 00:32:59;;;;;;;0.40;0.40;;;16.60;66.00;;;16.83;52.56;95675.81;5062778;28;20200;-78
2022/08/07 00:35:28;;;;;;;0.50;0.50;;;16.50;66.40;;;16.78;52.45;95665.03;5030450;28;20197;-78
2022/08/07 00:37:58;;;;;;;0.70;0.70;;;16.50;66.10;;;16.76;52.44;95659.13;5051310;28;20251;-78
2022/08/07 00:40:29;;;;;;;0.60;0.60;;;16.50;66.30;;;16.75;52.53;95665.47;5028791;28;20683;-78
2022/08/07 00:43:12;;;;;;;0.50;0.50;;;16.50;66.40;;;16.74;52.44;95669.94;5008109;28;20207;-79
2022/08/07 00:46:00;;;;;;;0.50;0.50;;;16.40;66.70;;;16.69;52.50;95659.19;5023700;28;20223;-78
2022/08/07 00:48:29;;;;;;;0.50;0.50;;;16.40;66.50;;;16.69;52.94;95667.13;5028447;28;20207;-78
2022/08/07 00:50:59;;;;;;;0.50;0.50;;;16.40;66.50;;;16.67;52.75;95665.72;5029302;28;20220;-78
2022/08/07 00:53:27;;;;;;;0.50;0.50;;;16.40;66.70;;;16.65;52.76;95679.19;5014498;28;20211;-78
2022/08/07 00:56:15;;;;;;;0.50;0.50;;;16.30;66.70;;;16.63;53.11;95675.94;5016264;28;20238;-78
2022/08/07 00:58:44;;;;;;;0.50;0.50;;;16.30;66.70;;;16.61;53.18;95672.66;5047433;28;20286;-78
2022/08/07 01:01:21;;;;;;;0.50;0.50;;;16.30;66.80;;;16.60;53.16;95660.44;5053791;28;20250;-78
2022/08/07 01:03:51;;;;;;;0.60;0.60;;;16.30;66.90;;;16.59;53.47;95664.94;5048579;28;20199;-77
2022/08/07 01:06:30;;;;;;;0.50;0.50;;;16.30;66.90;;;16.56;53.46;95652.09;5017088;28;20259;-78
2022/08/07 01:08:59;;;;;;;0.55;0.55;;;16.30;67.20;;;16.58;53.08;95662.50;5014446;28;20306;-78
2022/08/07 01:11:31;;;;;;;0.50;0.50;;;16.30;67.50;;;16.55;53.03;95666.41;5018808;28;20583;-78
2022/08/07 01:14:23;;;;;;;0.50;0.50;;;16.30;67.00;;;16.49;53.15;95670.69;5009980;28;20200;-78
2022/08/07 01:16:56;;;;;;;0.50;0.50;;;16.30;67.20;;;16.49;53.34;95667.25;5059530;28;20228;-78
2022/08/07 01:19:27;;;;;;;0.55;0.55;;;16.20;66.80;;;16.44;53.06;95667.03;5042825;28;20537;-78
2022/08/07 01:21:59;;;;;;;0.50;0.50;;;16.20;66.80;;;16.35;53.42;95653.22;5028882;28;20235;-78
2022/08/07 01:24:34;;;;;;;0.55;0.55;;;16.20;66.80;;;16.36;53.29;95665.44;5023701;28;20215;-78
2022/08/07 01:27:03;;;;;;;0.60;0.60;;;16.10;66.90;;;16.35;53.13;95668.31;5037779;28;20215;-78
2022/08/07 01:29:32;;;;;;;0.50;0.50;;;16.10;66.90;;;16.36;53.62;95669.94;5021728;28;20200;-78
2022/08/07 01:32:02;;;;;;;0.50;0.50;;;16.10;67.00;;;16.35;53.60;95663.00;5005340;28;20235;-78
2022/08/07 01:34:32;;;;;;;0.50;0.50;;;16.10;67.10;;;16.36;53.69;95664.66;5065367;28;20249;-78
2022/08/07 01:37:11;;;;;;;0.50;0.50;;;16.10;67.20;;;16.30;53.43;95653.03;5014306;28;20687;-77
2022/08/07 01:39:40;;;;;;;0.50;0.50;;;16.10;67.10;;;16.33;53.54;95650.78;5030607;28;20279;-78
2022/08/07 01:42:34;;;;;;;0.50;0.50;;;16.10;68.10;;;16.36;53.50;95656.69;5028685;28;20225;-78
2022/08/07 01:45:21;;;;;;;0.52;0.52;;;16.10;67.20;;;16.34;53.67;95654.25;5064873;28;20273;-78
2022/08/07 01:48:12;;;;;;;0.55;0.55;;;16.10;67.10;;;16.39;53.54;95661.56;5067579;28;20208;-78
2022/08/07 01:51:08;;;;;;;0.70;0.70;;;16.10;67.10;;;16.40;53.92;95657.91;5043703;28;20706;-78
2022/08/07 01:54:02;;;;;;;0.60;0.60;;;16.10;67.50;;;16.39;53.71;95654.41;5037693;28;20196;-78
2022/08/07 01:56:56;;;;;;;0.60;0.60;;;16.20;67.30;;;16.39;53.51;95664.22;5040156;28;20215;-78
2022/08/07 01:59:55;;;;;;;0.60;0.60;;;16.20;67.10;;;16.37;53.56;95660.94;5021133;28;20203;-77
2022/08/07 02:02:31;;;;;;;0.60;0.60;;;16.20;67.20;;;16.38;53.55;95655.47;5031215;28;20228;-78
2022/08/07 02:05:35;;;;;;;0.60;0.60;;;16.10;67.10;;;16.37;53.29;95661.78;5033637;28;20196;-79
2022/08/07 02:08:25;;;;;;;0.50;0.50;;;16.20;68.10;;;16.38;53.39;95660.75;5038822;28;20196;-78
2022/08/07 02:10:57;;;;;;;0.60;0.60;;;16.20;67.00;;;16.38;53.50;95657.28;5000484;28;20665;-78
2022/08/07 02:13:29;;;;;;;0.60;0.60;;;16.10;66.80;;;16.36;53.15;95649.56;5050858;28;20573;-79
2022/08/07 02:16:19;;;;;;;0.55;0.55;;;16.20;66.90;;;16.31;53.41;95644.88;5040138;28;20223;-78
2022/08/07 02:19:10;;;;;;;0.60;0.60;;;16.10;66.90;;;16.25;53.94;95635.13;5032847;28;20192;-78
2022/08/07 02:22:00;;;;;;;0.60;0.60;;;16.10;66.80;;;16.21;53.48;95641.88;5013648;28;20233;-78
2022/08/07 02:24:29;;;;;;;0.60;0.60;;;16.10;66.80;;;16.17;53.48;95638.00;4997813;28;20231;-78
2022/08/07 02:26:59;;;;;;;0.52;0.52;;;16.00;66.70;;;16.14;53.95;95641.09;4981010;28;20320;-77
2022/08/07 02:29:31;;;;;;;0.50;0.50;;;16.00;66.90;;;16.09;53.69;95639.06;5013310;28;20230;-78
2022/08/07 02:32:03;;;;;;;0.70;0.70;;;16.00;66.80;;;16.06;53.38;95636.81;5010154;28;20232;-78
2022/08/07 02:34:31;;;;;;;0.60;0.60;;;15.90;66.70;;;16.03;53.50;95637.25;5000159;28;20290;-78
2022/08/07 02:37:04;;;;;;;0.50;0.50;;;15.90;66.80;;;15.99;53.49;95642.16;4985148;28;20303;-78
2022/08/07 02:39:39;;;;;;;0.60;0.60;;;15.80;66.90;;;15.96;53.54;95637.25;5012897;28;20617;-78
2022/08/07 02:42:31;;;;;;;0.60;0.60;;;15.70;66.80;;;15.91;53.56;95633.63;5013142;28;20232;-78
2022/08/07 02:45:03;;;;;;;0.60;0.60;;;15.80;66.80;;;15.90;53.62;95632.78;5013115;28;20205;-78
2022/08/07 02:47:51;;;;;;;0.60;0.60;;;15.70;66.80;;;15.84;53.40;95637.09;4999784;28;20664;-78
2022/08/07 02:50:19;;;;;;;0.60;0.60;;;15.70;66.70;;;15.83;53.57;95646.06;5036881;28;20834;-79
2022/08/07 02:53:02;;;;;;;0.50;0.50;;;15.60;66.50;;;15.80;53.79;95635.84;5016034;28;20234;-78
2022/08/07 02:55:37;;;;;;;0.50;0.50;;;15.60;66.80;;;15.78;53.70;95634.44;5016991;28;20250;-78
2022/08/07 02:58:27;;;;;;;0.50;0.50;;;15.60;66.80;;;15.74;53.62;95628.72;5018025;28;20192;-78
2022/08/07 03:01:02;;;;;;;0.50;0.50;;;15.50;66.70;;;15.73;53.38;95632.41;5045803;28;20281;-77
2022/08/07 03:03:35;;;;;;;0.60;0.60;;;15.50;66.90;;;15.72;53.38;95628.16;5048183;28;20295;-78
2022/08/07 03:06:26;;;;;;;0.50;0.50;;;15.60;67.10;;;15.69;53.88;95626.69;5032747;28;20227;-79
2022/08/07 03:09:04;;;;;;;0.50;0.50;;;15.50;67.00;;;15.65;53.67;95625.50;5004542;28;20203;-78
2022/08/07 03:11:33;;;;;;;0.50;0.50;;;15.50;67.10;;;15.66;53.86;95621.84;5049193;28;20216;-78
2022/08/07 03:14:07;;;;;;;0.50;0.50;;;15.50;67.20;;;15.66;53.80;95621.84;5048070;28;20269;-78
2022/08/07 03:16:37;;;;;;;0.60;0.60;;;15.50;67.20;;;15.65;53.83;95624.69;5064158;28;20220;-78
2022/08/07 03:19:08;;;;;;;0.60;0.60;;;15.50;67.20;;;15.67;53.77;95620.00;5064812;28;20208;-78
2022/08/07 03:21:36;;;;;;;0.60;0.60;;;15.40;67.20;;;15.67;54.04;95614.72;5060266;28;20234;-78
2022/08/07 03:24:12;;;;;;;0.70;0.70;;;15.50;67.20;;;15.66;53.76;95613.91;5016432;28;20215;-78
2022/08/07 03:26:52;;;;;;;0.50;0.50;;;15.50;67.20;;;15.68;54.04;95611.03;5001896;28;20212;-78
2022/08/07 03:29:39;;;;;;;0.50;0.50;;;15.40;67.30;;;15.67;53.68;95618.19;5019674;28;20212;-78
2022/08/07 03:32:23;;;;;;;0.50;0.50;;;15.50;67.60;;;15.69;54.08;95610.03;5027252;28;20228;-78
2022/08/07 03:34:56;;;;;;;0.50;0.50;;;15.50;68.40;;;15.69;54.11;95615.31;5012205;28;20291;-78
2022/08/07 03:37:50;;;;;;;0.50;0.50;;;15.50;67.40;;;15.66;54.05;95605.97;5040116;28;20221;-78
2022/08/07 03:40:24;;;;;;;0.50;0.50;;;15.50;67.20;;;15.68;53.83;95611.88;5012454;28;20216;-78
2022/08/07 03:43:03;;;;;;;0.60;0.60;;;15.50;67.20;;;15.65;53.95;95609.63;5015112;28;20209;-78
2022/08/07 03:45:41;;;;;;;0.57;0.57;;;15.50;67.20;;;15.65;53.82;95619.41;5011759;28;20252;-79
2022/08/07 03:48:17;;;;;;;0.70;0.70;;;15.40;67.00;;;15.64;53.71;95617.78;5029738;28;20261;-78
2022/08/07 03:50:45;;;;;;;0.80;0.80;;;15.50;67.00;;;15.62;53.98;95615.31;5031625;28;20212;-78
2022/08/07 03:53:22;;;;;;;0.50;0.50;;;15.40;67.00;;;15.61;53.71;95608.44;5064232;28;20199;-78
2022/08/07 03:56:17;;;;;;;0.50;0.50;;;15.40;67.00;;;15.57;53.86;95615.13;5031579;28;20307;-78
2022/08/07 03:59:05;;;;;;;0.60;0.60;;;15.40;67.20;;;15.58;53.68;95610.66;5014960;28;20262;-77
2022/08/07 04:01:43;;;;;;;0.68;0.68;;;15.40;67.10;;;15.55;53.84;95608.44;5048048;28;20235;-78
2022/08/07 04:04:17;;;;;;;0.60;0.60;;;15.40;67.20;;;15.54;54.21;95604.97;5003837;28;20195;-78
2022/08/07 04:06:49;;;;;;;0.60;0.60;;;15.40;67.30;;;15.53;53.81;95603.34;5026749;28;20235;-78
2022/08/07 04:09:20;;;;;;;0.70;0.70;;;15.30;67.10;;;15.51;54.11;95600.91;5063744;28;20200;-78
2022/08/07 04:11:54;;;;;;;0.60;0.60;;;15.30;67.20;;;15.51;53.95;95602.72;5011511;28;20224;-77
2022/08/07 04:14:45;;;;;;;0.60;0.60;;;15.30;67.20;;;15.50;54.13;95601.94;5028136;28;20196;-78
2022/08/07 04:17:17;;;;;;;0.50;0.50;;;15.30;67.20;;;15.52;53.94;95607.00;5012010;28;20752;-78
2022/08/07 04:19:50;;;;;;;0.55;0.55;;;15.30;67.30;;;15.53;54.14;95614.72;5013039;28;20208;-78
2022/08/07 04:22:26;;;;;;;0.80;0.80;;;15.30;67.20;;;15.55;54.13;95613.72;5060404;28;20609;-79
2022/08/07 04:25:02;;;;;;;0.80;0.80;;;15.30;67.60;;;15.55;54.27;95619.84;5044450;28;20286;-79
2022/08/07 04:27:38;;;;;;;0.60;0.60;;;15.30;67.30;;;15.60;54.32;95620.03;5029048;28;20582;-79
2022/08/07 04:30:16;;;;;;;0.60;0.60;;;15.40;67.30;;;15.64;53.96;95620.41;5044833;28;20305;-79
2022/08/07 04:33:18;;;;;;;0.60;0.60;;;15.40;67.30;;;15.67;54.16;95620.81;5064341;28;20206;-79
2022/08/07 04:35:48;;;;;;;0.60;0.60;;;15.50;67.50;;;15.69;54.18;95620.63;5064911;28;20227;-79
2022/08/07 04:38:19;;;;;;;0.50;0.50;;;15.50;67.40;;;15.73;53.91;95626.31;5031786;28;20253;-78
2022/08/07 04:40:48;;;;;;;0.50;0.50;;;15.50;68.30;;;15.74;54.15;95626.09;5034639;28;20243;-79
2022/08/07 04:43:38;;;;;;;0.60;0.60;;;15.50;67.50;;;15.78;54.39;95629.13;5027628;28;20219;-79
2022/08/07 04:46:40;;;;;;;0.60;0.60;;;15.60;68.00;;;15.80;54.20;95622.63;5041996;28;20216;-79
2022/08/07 04:50:14;;;;;;;0.60;0.60;;;15.60;67.60;;;15.80;54.19;95624.47;5044595;28;20201;-79
2022/08/07 04:53:20;;;;;;;0.50;0.50;;;15.60;67.70;;;15.82;54.62;95625.06;5046851;28;20203;-78
2022/08/07 04:56:19;;;;;;;0.50;0.50;;;15.60;67.70;;;15.86;54.24;95620.22;5037313;28;20211;-79
2022/08/07 04:59:47;;;;;;;0.50;0.50;;;15.70;67.70;;;15.90;54.40;95627.50;5046635;28;20195;-79
2022/08/07 05:03:17;;;;;;;0.57;0.57;;;15.70;67.70;;;15.92;54.13;95624.69;5029103;28;20231;-79
2022/08/07 05:06:11;;;;;;;0.60;0.60;;;15.70;67.70;;;15.94;54.24;95626.09;5026725;28;20614;-80
2022/08/07 05:08:57;;;;;;;0.70;0.70;;;15.70;67.40;;;15.94;54.34;95623.44;5029989;28;20542;-80
2022/08/07 05:11:38;;;;;;;0.50;0.50;;;15.80;67.50;;;15.96;54.17;95623.22;5062270;28;20306;-80
2022/08/07 05:14:31;;;;;;;0.50;0.50;;;15.80;67.30;;;15.98;54.26;95637.88;5046294;28;20189;-79
2022/08/07 05:17:20;;;;;;;0.60;0.60;;;15.80;67.50;;;16.01;53.95;95631.34;5065100;28;20530;-79
2022/08/07 05:20:10;;;;;;;0.60;0.60;;;15.90;67.60;;;16.05;54.33;95629.09;5048733;28;20203;-80
2022/08/07 05:22:42;;;;;;;0.50;0.50;;;15.80;67.40;;;16.15;54.20;95638.22;5021794;28;20235;-79
2022/08/07 05:25:11;;;;;;;0.60;0.60;;;15.90;67.70;;;16.25;54.36;95639.63;5054716;28;20176;-80
2022/08/07 05:28:00;;;;;;;0.50;0.50;;;16.00;67.80;;;16.35;54.46;95642.63;5029736;28;20207;-80
2022/08/07 05:30:48;;;;;;;0.60;0.60;;;16.10;67.80;;;16.44;54.44;95641.38;5033405;28;20216;-80
2022/08/07 05:33:19;;;;;;;0.60;0.60;;;16.20;67.70;;;16.60;54.19;95652.50;5051791;28;20268;-80
2022/08/07 05:35:50;;;;;;;0.60;0.60;;;16.30;67.70;;;16.73;54.20;95652.44;5035802;28;20231;-80
2022/08/07 05:38:21;;;;;;;0.50;0.50;;;16.40;67.70;;;16.84;53.89;95648.28;5010952;28;20254;-80
2022/08/07 05:41:09;;;;;;;0.50;0.50;;;16.50;67.60;;;16.93;54.20;95640.94;5019752;28;20212;-80
2022/08/07 05:43:54;;;;;;;0.50;0.50;;;16.70;67.70;;;17.05;54.21;95644.56;5049786;28;20207;-79
2022/08/07 05:46:45;;;;;;;0.60;0.60;;;16.80;67.60;;;17.19;54.11;95649.75;5052328;28;20700;-79
2022/08/07 05:49:22;;;;;;;0.50;0.50;;;16.90;67.50;;;17.29;54.11;95650.06;5019839;28;20222;-79
2022/08/07 05:51:51;;;;;;;0.55;0.55;;;17.00;67.30;;;17.41;53.88;95652.84;5001341;28;20274;-80
2022/08/07 05:54:20;;;;;;;0.50;0.50;;;17.10;67.20;;;17.49;54.03;95657.88;5017763;28;20199;-80
2022/08/07 05:57:11;;;;;;;0.50;0.50;;;17.20;67.30;;;17.59;53.64;95650.25;5026782;28;20624;-79
2022/08/07 05:59:41;;;;;;;0.50;0.50;;;17.40;67.20;;;17.72;53.80;95653.78;5008810;28;20254;-79
2022/08/07 06:02:29;;;;;;;0.50;0.50;;;17.40;67.10;;;17.86;53.19;95657.16;5033625;28;20330;-78
2022/08/07 06:05:09;;;;;;;0.40;0.40;;;17.60;67.00;;;17.95;53.32;95639.13;5018959;28;20238;-79
2022/08/07 06:07:43;;;;;;;0.40;0.40;;;17.70;66.70;;;18.12;53.19;95655.28;5048862;28;20311;-80
2022/08/07 06:10:31;;;;;;;0.50;0.50;;;17.80;66.80;;;18.22;53.13;95642.28;5031479;28;20219;-79
2022/08/07 06:13:02;;;;;;;0.50;0.50;;;18.00;66.70;;;18.33;52.72;95641.53;5017304;28;20198;-79
2022/08/07 06:15:35;;;;;;;0.50;0.50;;;18.10;66.40;;;18.45;53.07;95636.28;5016978;28;20295;-80
2022/08/07 06:18:12;;;;;;;0.57;0.57;;;18.20;66.40;;;18.58;52.48;95635.31;5065263;28;20238;-80
2022/08/07 06:20:44;;;;;;;0.40;0.40;;;18.30;66.30;;;18.69;52.30;95639.06;5049251;28;20631;-80
2022/08/07 06:23:33;;;;;;;0.40;0.40;;;18.50;66.20;;;18.82;52.20;95644.22;5025696;28;20195;-80
2022/08/07 06:26:21;;;;;;;0.50;0.50;;;18.60;66.20;;;18.94;52.06;95643.47;5039857;28;20222;-80
2022/08/07 06:28:58;;;;;;;0.40;0.40;;;18.70;65.90;;;19.06;52.22;95638.97;5026380;28;20215;-78
2022/08/07 06:31:29;;;;;;;0.50;0.50;;;18.80;65.80;;;19.18;52.23;95653.13;5021371;28;20709;-79
2022/08/07 06:34:15;;;;;;;0.40;0.40;;;19.00;65.70;;;19.28;51.64;95647.22;5025327;28;20195;-79
2022/08/07 06:36:47;;;;;;;0.50;0.50;;;19.00;65.80;;;19.39;51.80;95650.97;5013838;28;20220;-79
2022/08/07 06:39:21;;;;;;;0.50;0.50;;;19.20;65.70;;;19.48;51.62;95646.94;5046399;28;20196;-79
2022/08/07 06:42:22;;;;;;;0.47;0.47;;;19.20;65.60;;;19.60;51.42;95644.25;5040490;28;20233;-79
2022/08/07 06:45:17;;;;;;;0.40;0.40;;;19.40;65.40;;;19.71;51.62;95647.16;5036166;28;20202;-78
2022/08/07 06:47:54;;;;;;;0.40;0.40;;;19.50;65.50;;;19.81;51.28;95644.72;5037642;28;20210;-80
2022/08/07 06:50:44;;;;;;;0.40;0.40;;;19.60;65.60;;;19.90;51.53;95647.91;5032786;28;20564;-79
2022/08/07 06:53:19;;;;;;;0.40;0.40;;;19.70;65.10;;;19.97;51.09;95643.28;5064884;28;20196;-80
2022/08/07 06:56:15;;;;;;;0.40;0.40;;;19.80;65.10;;;20.03;50.79;95638.84;5048218;28;20219;-80
2022/08/07 06:58:48;;;;;;;0.40;0.40;;;19.90;65.00;;;20.13;51.04;95636.41;5035516;28;20222;-80
2022/08/07 07:01:41;;;;;;;0.40;0.40;;;19.90;65.00;;;20.19;51.48;95634.66;5034966;28;20321;-79
2022/08/07 07:04:17;;;;;;;0.40;0.40;;;20.00;65.00;;;20.26;50.94;95633.50;5049465;28;20307;-80
2022/08/07 07:07:01;;;;;;;0.40;0.40;;;20.10;64.70;;;20.36;50.85;95637.41;5036006;28;20224;-80
2022/08/07 07:09:50;;;;;;;0.40;0.40;;;20.20;64.70;;;20.44;50.69;95627.16;5025903;28;20230;-81
2022/08/07 07:12:43;;;;;;;0.45;0.45;;;20.30;64.40;;;20.55;50.72;95624.72;5028864;28;20208;-80
2022/08/07 07:15:24;;;;;;;0.40;0.40;;;20.40;64.40;;;20.67;50.22;95635.34;5035230;28;20196;-79
2022/08/07 07:18:13;;;;;;;0.40;0.40;;;20.50;63.90;;;20.77;49.89;95632.88;5043781;28;20215;-80
2022/08/07 07:21:07;;;;;;;0.40;0.40;;;20.50;63.90;;;20.86;49.91;95625.31;5033595;28;20613;-80
2022/08/07 07:23:46;;;;;;;0.40;0.40;;;20.70;64.00;;;20.97;49.55;95627.13;5047601;28;20227;-79
2022/08/07 07:26:35;;;;;;;0.40;0.40;;;20.80;64.10;;;21.10;49.38;95626.81;5015592;28;20224;-80
2022/08/07 07:29:16;;;;;;;0.30;0.30;;;20.90;64.20;;;21.20;49.21;95622.69;5054660;28;20621;-79
2022/08/07 07:32:09;;;;;;;0.50;0.50;;;21.00;63.80;;;21.31;48.40;95624.47;5044965;28;20216;-81
2022/08/07 07:34:45;;;;;;;0.40;0.40;;;21.10;63.10;;;21.43;48.72;95619.88;4983762;28;20206;-80
2022/08/07 07:37:16;;;;;;;0.35;0.35;;;21.20;63.20;;;21.53;48.20;95610.41;4996184;28;20318;-81
2022/08/07 07:40:07;;;;;;;0.32;0.32;;;21.30;63.20;;;21.61;48.22;95615.38;5023215;28;20192;-79
2022/08/07 07:42:43;;;;;;;0.35;0.35;;;21.40;62.80;;;21.71;47.87;95614.72;5011949;28;20247;-80
2022/08/07 07:45:20;;;;;;;0.40;0.40;;;21.50;62.80;;;21.78;47.82;95611.88;5011782;28;20506;-80
2022/08/07 07:48:11;;;;;;;0.40;0.40;;;21.60;62.60;;;21.85;47.40;95607.16;5014578;28;20214;-80
2022/08/07 07:51:01;;;;;;;0.40;0.40;;;21.70;63.20;;;21.94;47.38;95608.34;5007300;28;20228;-80
2022/08/07 07:53:30;;;;;;;0.40;0.40;;;21.70;62.20;;;22.00;47.23;95606.56;5013400;28;20823;-80
2022/08/07 07:56:02;;;;;;;0.40;0.40;;;21.80;61.80;;;22.07;46.80;95601.84;5015848;28;20232;-79
2022/08/07 07:58:34;;;;;;;0.40;0.40;;;21.90;61.80;;;22.14;46.23;95612.34;5025017;28;20200;-79
2022/08/07 08:01:08;;;;;;;0.40;0.40;;;22.00;61.30;;;22.19;46.50;95605.22;5017524;28;20229;-80
2022/08/07 08:04:00;;;;;;;0.50;0.50;;;22.00;61.40;;;22.23;46.50;95613.53;5020827;28;20225;-79
2022/08/07 08:06:39;;;;;;;0.40;0.40;;;22.10;61.10;;;22.29;46.53;95604.53;5012729;28;20238;-79
2022/08/07 08:09:23;;;;;;;0.30;0.30;;;22.20;61.60;;;22.37;46.53;95608.63;5030480;28;20214;-78
2022/08/07 08:11:57;;;;;;;0.40;0.40;;;22.20;61.50;;;22.45;46.78;95596.69;5012235;28;20234;-79
2022/08/07 08:14:34;;;;;;;0.30;0.30;;;22.30;62.50;;;22.55;46.76;95600.28;5012764;28;20284;-79
2022/08/07 08:17:07;;;;;;;0.35;0.35;;;22.40;61.50;;;22.67;46.05;95602.84;5029048;28;20248;-78
2022/08/07 08:20:07;;;;;;;0.40;0.40;;;22.50;61.30;;;22.78;45.80;95597.59;5026557;28;20568;-79
2022/08/07 08:28:38;;;;;;;0.60;0.60;;;22.80;60.30;;;23.06;44.73;95588.50;5016426;28;20204;-79
2022/08/07 08:31:19;;;;;;;0.40;0.40;;;22.90;60.00;;;23.13;44.44;95578.41;5016233;28;20215;-79
2022/08/07 08:34:09;;;;;;;0.35;0.35;;;23.00;59.80;;;23.20;44.77;95580.88;5025921;28;20307;-79
2022/08/07 08:36:56;;;;;;;0.40;0.40;;;23.10;60.30;;;23.29;45.08;95579.34;5037456;28;20224;-79
2022/08/07 08:39:26;;;;;;;0.40;0.40;;;23.10;60.50;;;23.40;45.20;95585.59;5040365;28;20200;-79
2022/08/07 08:42:40;;;;;;;0.30;0.30;;;23.20;60.30;;;23.49;44.90;95592.06;5002360;28;20228;-80
2022/08/07 08:46:00;;;;;;;0.40;0.40;;;23.30;60.50;;;23.60;44.95;95597.50;5023682;28;20286;-80
2022/08/07 08:49:09;;;;;;;0.30;0.30;;;23.40;60.20;;;23.73;44.84;95589.03;4978420;28;20198;-80
2022/08/07 08:51:56;;;;;;;0.35;0.35;;;23.60;59.70;;;23.85;44.24;95591.47;5043437;28;20240;-79
2022/08/07 08:54:55;;;;;;;0.50;0.50;;;23.70;59.70;;;23.97;44.15;95594.81;5015233;28;20690;-79
2022/08/07 08:57:36;;;;;;;0.40;0.40;;;23.80;59.20;;;24.07;43.77;95591.38;5025601;28;20304;-80
2022/08/07 09:00:08;;;;;;;0.40;0.40;;;23.90;58.20;;;24.16;43.93;95590.84;5000829;28;21301;-79
2022/08/07 09:02:38;;;;;;;0.40;0.40;;;24.00;59.10;;;24.30;43.81;95589.31;5034119;28;20750;-79
2022/08/07 09:05:41;;;;;;;0.30;0.30;;;24.10;59.20;;;24.44;42.97;95582.41;5030969;28;20196;-79
2022/08/07 09:09:17;;;;;;;0.30;0.30;;;24.30;58.20;;;24.62;42.95;95573.06;5024004;28;20209;-79
2022/08/07 09:12:12;;;;;;;0.40;0.40;;;24.50;59.00;;;24.81;42.24;95577.16;5043243;28;20307;-78
2022/08/07 09:15:31;;;;;;;0.40;0.40;;;24.70;57.90;;;25.01;42.50;95579.03;5026852;28;20610;-79
2022/08/07 09:18:56;;;;;;;0.30;0.30;;;24.90;56.60;;;25.19;42.37;95575.81;5018033;28;20862;-79
2022/08/07 09:21:32;;;;;;;0.50;0.50;;;25.10;58.10;;;25.39;42.22;95569.69;5037884;28;20703;-80
2022/08/07 09:24:33;;;;;;;0.30;0.30;;;25.30;56.70;;;25.53;41.35;95575.31;5009346;28;20202;-79
2022/08/07 09:27:28;;;;;;;0.30;0.30;;;25.50;56.50;;;25.66;41.20;95567.75;5029406;28;20226;-80
2022/08/07 09:30:04;;;;;;;0.40;0.40;;;25.60;55.80;;;25.73;40.53;95569.09;5027514;28;20201;-80
2022/08/07 09:32:56;;;;;;;0.30;0.30;;;25.70;54.80;;;25.78;40.59;95579.03;5013533;28;20253;-78
2022/08/07 09:35:41;;;;;;;0.30;0.30;;;25.80;55.20;;;25.86;40.45;95577.66;5010745;28;20227;-79
2022/08/07 09:39:02;;;;;;;0.30;0.30;;;25.90;55.30;;;25.91;40.69;95564.22;5037974;28;20199;-80
2022/08/07 09:42:10;;;;;;;0.30;0.30;;;26.00;56.00;;;25.99;40.38;95562.84;5043865;28;20705;-78
2022/08/07 09:45:13;;;;;;;0.30;0.30;;;26.10;55.20;;;26.09;40.43;95565.53;5039255;28;20203;-80
2022/08/07 09:48:19;;;;;;;0.30;0.30;;;26.20;54.40;;;26.13;39.62;95557.72;5006558;28;20201;-79
2022/08/07 09:51:21;;;;;;;0.30;0.30;;;26.20;54.00;;;26.13;39.52;95563.09;5018730;28;20639;-79
2022/08/07 09:54:17;;;;;;;0.30;0.30;;;26.30;54.50;;;26.08;39.30;95555.84;5051787;28;20291;-79
2022/08/07 09:57:28;;;;;;;0.40;0.40;;;26.30;53.20;;;26.03;39.33;95562.00;5032705;28;20234;-79
2022/08/07 10:00:06;;;;;;;0.30;0.30;;;26.20;53.90;;;25.95;39.08;95551.84;5046255;28;20245;-79
2022/08/07 10:02:51;;;;;;;0.30;0.30;;;26.10;52.80;;;25.87;39.24;95555.09;5015594;28;20222;-79
2022/08/07 10:05:54;;;;;;;0.30;0.30;;;26.00;53.40;;;25.78;39.29;95546.78;5065833;28;20285;-78
2022/08/07 10:08:38;;;;;;;0.30;0.30;;;26.00;52.90;;;25.72;38.83;95529.09;5033176;28;20204;-78
2022/08/07 10:11:33;;;;;;;0.30;0.30;;;25.90;52.80;;;25.76;39.18;95529.34;5032883;28;20221;-80
2022/08/07 10:15:21;;;;;;;0.30;0.30;;;25.90;53.40;;;25.79;38.70;95532.25;5046919;28;20643;-79
2022/08/07 10:18:40;;;;;;;0.40;0.40;;;25.90;53.30;;;25.87;38.94;95536.28;5027230;28;20204;-80
2022/08/07 10:21:43;;;;;;;0.30;0.30;;;25.90;52.80;;;25.98;38.45;95534.38;5013110;28;20236;-78
2022/08/07 10:24:44;;;;;;;0.30;0.30;;;25.90;52.70;;;26.10;38.06;95532.19;5015324;28;20219;-79
2022/08/07 10:27:58;;;;;;;0.30;0.30;;;26.00;52.20;;;26.15;38.29;95518.72;5053990;28;20263;-79
2022/08/07 10:31:13;;;;;;;0.40;0.40;;;26.20;53.20;;;26.21;38.18;95517.59;5048013;28;20197;-79
2022/08/07 10:34:17;;;;;;;0.30;0.30;;;26.20;53.30;;;26.27;38.36;95507.66;5016733;28;20205;-79
2022/08/07 10:37:25;;;;;;;0.30;0.30;;;26.30;52.50;;;26.28;37.73;95517.31;5032669;28;20220;-79
2022/08/07 10:40:32;;;;;;;0.30;0.30;;;26.30;51.60;;;26.26;37.29;95507.94;5018537;28;20224;-78
2022/08/07 10:43:32;;;;;;;0.30;0.30;;;26.30;52.20;;;26.29;37.35;95507.34;5032091;28;20263;-78
2022/08/07 10:46:13;;;;;;;0.30;0.30;;;26.30;51.80;;;26.29;37.76;95496.59;4999296;28;20233;-78
2022/08/07 10:49:01;;;;;;;0.30;0.30;;;26.30;51.40;;;26.35;37.43;95493.63;5065456;28;20644;-78
2022/08/07 10:52:02;;;;;;;0.30;0.30;;;26.40;51.40;;;26.41;37.16;95494.38;5016528;28;20220;-79
2022/08/07 10:55:07;;;;;;;0.38;0.38;;;26.40;51.40;;;26.45;37.20;95494.63;5032063;28;20205;-79
2022/08/07 10:58:15;;;;;;;0.30;0.30;;;26.40;50.70;;;26.48;36.93;95502.16;5044162;28;20207;-79
2022/08/07 11:01:17;;;;;;;0.20;0.20;;;26.50;51.00;;;26.50;36.51;95492.72;5065040;28;20203;-80
2022/08/07 11:04:13;;;;;;;0.30;0.30;;;26.60;50.70;;;26.57;36.87;95491.59;5016349;28;20593;-80
2022/08/07 11:07:29;;;;;;;0.30;0.30;;;26.60;50.60;;;26.59;37.05;95484.84;5032914;28;20301;-79
2022/08/07 11:10:24;;;;;;;0.30;0.30;;;26.60;50.50;;;26.67;36.50;95489.63;5015408;28;20214;-79
2022/08/07 11:13:35;;;;;;;0.20;0.20;;;26.70;49.90;;;26.74;36.68;95475.06;5013185;28;20715;-79
2022/08/07 11:16:31;;;;;;;0.30;0.30;;;26.80;50.90;;;26.80;36.45;95469.38;5018947;28;20551;-80
2022/08/07 11:19:10;;;;;;;0.40;0.40;;;26.80;50.60;;;26.87;36.00;95471.75;5029334;28;20208;-79
2022/08/07 11:21:50;;;;;;;0.30;0.30;;;26.80;50.00;;;26.92;36.02;95465.53;5039554;28;20230;-79
2022/08/07 11:24:24;;;;;;;0.30;0.30;;;26.90;49.60;;;26.98;35.75;95469.78;5030590;28;20226;-79
2022/08/07 11:27:16;;;;;;;0.30;0.30;;;27.00;49.70;;;27.04;36.27;95471.34;5031283;28;20627;-78
2022/08/07 11:29:53;;;;;;;0.30;0.30;;;27.00;50.10;;;27.09;35.88;95463.22;5000055;28;20682;-79
2022/08/07 11:32:51;;;;;;;0.20;0.20;;;27.10;49.70;;;27.16;35.96;95457.50;5018364;28;20230;-80
2022/08/07 11:35:35;;;;;;;0.20;0.20;;;27.20;49.70;;;27.22;35.41;95455.53;5012706;28;20222;-79
2022/08/07 11:38:30;;;;;;;0.30;0.30;;;27.20;49.60;;;27.24;34.86;95451.47;5017522;28;20202;-79
2022/08/07 11:41:22;;;;;;;0.20;0.20;;;27.30;48.30;;;27.27;35.36;95440.16;5015034;28;20710;-79